Time;durP1;ratioP1;P1;durP2;ratioP2;P2;SDS_P1;SDS_P2;PMS_P1;PMS_P2;Temp;Humidity;BMP_temperature;BMP_pressure;BME280_temperature;BME280_humidity;BME280_pressure;Samples;Min_cycle;Max_cycle;Signal;HPM_P1;HPM_P2
2023/12/09 00:00:05;;;;;;;12.03;5.07;;;0.90;99.90;;;;;;1925419;73;25229;-93
2023/12/09 00:02:53;;;;;;;13.87;5.20;;;0.90;99.90;;;;;;1930113;73;25242;-93
2023/12/09 00:05:42;;;;;;;14.80;5.83;;;0.90;99.90;;;;;;1916932;73;25203;-93
2023/12/09 00:08:30;;;;;;;5.97;2.77;;;0.90;99.90;;;;;;1936685;73;25775;-92
2023/12/09 00:21:20;;;;;;;21.23;7.80;;;0.90;99.90;;;;;;1948127;71;26278;-93
2023/12/09 00:24:08;;;;;;;11.97;4.10;;;1.00;99.90;;;;;;1932068;72;25174;-92
2023/12/09 00:26:57;;;;;;;22.00;7.70;;;0.90;99.90;;;;;;1891936;73;25257;-92
2023/12/09 00:29:45;;;;;;;10.87;4.67;;;0.90;99.90;;;;;;1947958;72;25191;-92
2023/12/09 00:32:33;;;;;;;14.23;4.23;;;1.00;99.90;;;;;;1941106;72;25211;-92
2023/12/09 00:35:24;;;;;;;16.57;5.73;;;1.00;99.90;;;;;;1936357;72;25273;-93
2023/12/09 00:38:25;;;;;;;20.83;7.27;;;1.00;99.90;;;;;;1945429;72;25211;-92
2023/12/09 01:02:53;;;;;;;28.50;8.03;;;1.10;99.90;;;;;;1869399;73;26345;-91
2023/12/09 02:17:46;;;;;;;17.40;6.70;;;1.20;99.90;;;;;;1962721;71;25176;-91
2023/12/09 02:36:03;;;;;;;25.83;10.37;;;1.20;99.90;;;;;;1912283;73;26411;-91
2023/12/09 02:38:57;;;;;;;10.67;4.13;;;1.10;99.90;;;;;;1880864;75;25208;-91
2023/12/09 03:00:24;;;;;;;9.93;3.67;;;1.10;99.90;;;;;;1917202;74;25766;-92
2023/12/09 03:16:42;;;;;;;13.20;5.83;;;1.00;99.90;;;;;;1869338;74;27036;-91
2023/12/09 03:23:08;;;;;;;17.63;6.57;;;0.90;99.90;;;;;;1960406;72;27035;-93
2023/12/09 03:29:10;;;;;;;15.67;7.20;;;0.90;99.90;;;;;;1958436;72;25260;-92
2023/12/09 03:31:59;;;;;;;9.50;4.90;;;0.90;99.90;;;;;;1946066;73;25166;-93
2023/12/09 03:34:49;;;;;;;11.50;5.83;;;0.90;99.90;;;;;;1957320;73;25205;-93
2023/12/09 03:37:38;;;;;;;13.83;5.63;;;0.90;99.90;;;;;;1949870;73;25209;-92
2023/12/09 03:40:28;;;;;;;7.47;4.03;;;0.90;99.90;;;;;;1957712;72;25198;-93
2023/12/09 03:43:17;;;;;;;11.87;3.80;;;0.90;99.90;;;;;;1951553;73;25899;-92
2023/12/09 03:46:06;;;;;;;13.30;6.37;;;0.80;99.90;;;;;;1954326;73;25188;-92
2023/12/09 03:48:55;;;;;;;11.90;5.13;;;0.80;99.90;;;;;;1924158;73;25208;-92
2023/12/09 03:51:47;;;;;;;12.17;5.63;;;0.80;99.90;;;;;;1925355;73;25215;-92
2023/12/09 03:54:37;;;;;;;10.17;4.23;;;0.80;99.90;;;;;;1906640;73;25199;-92
2023/12/09 03:57:26;;;;;;;11.63;3.57;;;0.80;99.90;;;;;;1924024;73;25745;-92
2023/12/09 04:00:16;;;;;;;14.07;4.70;;;0.80;99.90;;;;;;1923603;73;25349;-93
2023/12/09 04:03:05;;;;;;;9.07;4.77;;;0.90;99.90;;;;;;1928918;73;25269;-93
2023/12/09 04:05:56;;;;;;;9.10;5.10;;;0.80;99.90;;;;;;1932131;73;25221;-93
2023/12/09 04:08:45;;;;;;;8.63;4.50;;;0.80;99.90;;;;;;1927075;73;25213;-93
2023/12/09 04:11:34;;;;;;;17.83;6.33;;;0.80;99.90;;;;;;1925790;73;26512;-93
2023/12/09 04:18:14;;;;;;;13.57;5.77;;;0.80;99.90;;;;;;1923331;73;25207;-92
2023/12/09 04:21:03;;;;;;;9.33;4.30;;;0.80;99.90;;;;;;1923223;73;25232;-92
2023/12/09 04:23:53;;;;;;;16.03;6.83;;;0.80;99.90;;;;;;1942703;73;25761;-92
2023/12/09 04:26:43;;;;;;;13.53;6.03;;;0.80;99.90;;;;;;1928411;73;25190;-92
2023/12/09 04:29:38;;;;;;;9.57;4.33;;;0.80;99.90;;;;;;1927630;73;25157;-92
2023/12/09 05:37:51;;;;;;;7.93;3.83;;;1.00;99.90;;;;;;1949358;72;27071;-92
2023/12/09 05:40:41;;;;;;;9.70;5.13;;;1.00;99.90;;;;;;1917408;73;25219;-93
2023/12/09 05:43:35;;;;;;;15.17;7.43;;;0.90;99.90;;;;;;1854429;76;25765;-92
2023/12/09 05:46:24;;;;;;;16.83;6.47;;;1.00;99.90;;;;;;1899922;74;25271;-93
2023/12/09 05:49:14;;;;;;;11.77;5.43;;;1.10;99.90;;;;;;1914813;74;25709;-92
2023/12/09 05:52:04;;;;;;;12.60;5.37;;;1.10;99.90;;;;;;1921215;74;25225;-92
2023/12/09 05:54:54;;;;;;;15.67;6.93;;;1.00;99.90;;;;;;1909800;74;25238;-93
2023/12/09 05:57:43;;;;;;;6.83;3.00;;;1.00;99.90;;;;;;1912481;73;25730;-93
2023/12/09 06:00:32;;;;;;;9.67;5.20;;;1.00;99.90;;;;;;1905067;74;25237;-92
2023/12/09 06:03:22;;;;;;;13.33;6.07;;;1.10;99.90;;;;;;1921963;73;25262;-92
2023/12/09 06:06:11;;;;;;;9.80;5.30;;;1.00;99.90;;;;;;1904695;73;25486;-93
2023/12/09 06:09:00;;;;;;;9.80;4.73;;;1.10;99.90;;;;;;1918491;74;25223;-92
2023/12/09 06:11:49;;;;;;;9.63;4.83;;;1.00;99.90;;;;;;1920282;74;25262;-92
2023/12/09 06:14:40;;;;;;;11.97;6.17;;;1.00;99.90;;;;;;1917612;74;25806;-92
2023/12/09 06:17:49;;;;;;;12.63;5.80;;;1.00;99.90;;;;;;1905413;74;25780;-92
2023/12/09 06:23:33;;;;;;;14.20;6.27;;;1.00;99.90;;;;;;1942701;72;27481;-92
2023/12/09 06:26:23;;;;;;;9.47;4.27;;;1.00;99.90;;;;;;1924957;73;25216;-92
2023/12/09 06:29:16;;;;;;;7.33;3.80;;;1.00;99.90;;;;;;1920623;73;25743;-92
2023/12/09 06:32:07;;;;;;;15.00;6.43;;;1.00;99.90;;;;;;1916624;75;25253;-92
2023/12/09 06:34:55;;;;;;;6.87;3.37;;;1.00;99.90;;;;;;1923802;73;25290;-92
2023/12/09 06:37:47;;;;;;;13.57;6.57;;;1.00;99.90;;;;;;1941239;73;25197;-92
2023/12/09 06:40:36;;;;;;;13.90;6.30;;;1.00;99.90;;;;;;1923917;73;25172;-92
2023/12/09 06:43:26;;;;;;;8.23;4.20;;;1.00;99.90;;;;;;1923397;73;25314;-92
2023/12/09 06:46:15;;;;;;;8.87;4.70;;;1.00;99.90;;;;;;1918692;73;25208;-92
2023/12/09 06:49:05;;;;;;;10.93;4.17;;;0.90;99.90;;;;;;1893982;73;25156;-92
2023/12/09 06:51:54;;;;;;;5.27;2.53;;;0.90;99.90;;;;;;1912977;73;25644;-93
2023/12/09 06:54:43;;;;;;;13.07;4.70;;;0.90;99.90;;;;;;1902210;73;25269;-92
2023/12/09 06:57:33;;;;;;;12.10;4.73;;;0.90;99.90;;;;;;1908476;74;25241;-92
2023/12/09 07:00:23;;;;;;;10.70;5.80;;;0.90;99.90;;;;;;1868639;76;25218;-92
2023/12/09 07:03:12;;;;;;;11.93;5.33;;;0.90;99.90;;;;;;1906540;74;25261;-92
2023/12/09 07:06:04;;;;;;;11.13;4.23;;;0.90;99.90;;;;;;1912462;74;25312;-92
2023/12/09 07:08:56;;;;;;;9.70;4.17;;;0.90;99.90;;;;;;1906502;74;25811;-92
2023/12/09 07:11:47;;;;;;;11.67;5.50;;;0.90;99.90;;;;;;1906707;75;25753;-92
2023/12/09 07:55:06;;;;;;;6.77;3.27;;;1.30;99.90;;;;;;1907166;73;26629;-93
2023/12/09 07:57:56;;;;;;;4.57;2.47;;;1.30;99.90;;;;;;1915965;73;25936;-93
2023/12/09 08:30:42;;;;;;;4.20;2.20;;;1.30;99.90;;;;;;1883219;74;26473;-93
2023/12/09 08:47:34;;;;;;;6.33;3.50;;;1.30;99.90;;;;;;1888978;74;26350;-93
2023/12/09 10:46:53;;;;;;;6.33;3.40;;;1.00;99.90;;;;;;1967922;72;26664;-93
2023/12/09 11:03:01;;;;;;;5.40;3.30;;;1.00;99.90;;;;;;1882598;75;27215;-92
2023/12/09 11:09:13;;;;;;;6.63;3.60;;;1.00;99.90;;;;;;1946686;72;27555;-94
2023/12/09 11:12:12;;;;;;;8.40;3.77;;;1.00;99.90;;;;;;1922097;73;25308;-93
2023/12/09 11:15:09;;;;;;;4.93;3.30;;;1.00;99.90;;;;;;1919503;73;25293;-93
2023/12/09 11:18:03;;;;;;;5.87;3.07;;;1.00;99.90;;;;;;1923629;73;25180;-93
2023/12/09 19:24:47;;;;;;;5.40;2.73;;;0.60;99.90;;;;;;1874852;73;25216;-93
2023/12/09 20:05:35;;;;;;;5.27;2.80;;;0.60;99.90;;;;;;1892766;73;27110;-93
2023/12/09 20:33:02;;;;;;;7.90;4.27;;;0.50;99.90;;;;;;1908024;74;26303;-93
2023/12/09 20:35:54;;;;;;;6.13;3.67;;;0.70;99.90;;;;;;1965470;72;25235;-93
2023/12/09 20:38:44;;;;;;;5.37;3.07;;;0.60;99.90;;;;;;1953541;72;25218;-93
2023/12/09 21:07:23;;;;;;;10.07;4.67;;;0.60;99.90;;;;;;1862042;74;26848;-92
2023/12/09 21:36:35;;;;;;;7.10;3.33;;;0.50;99.90;;;;;;1872190;75;27012;-92
2023/12/09 21:55:59;;;;;;;11.13;5.10;;;0.50;99.90;;;;;;1948402;71;27449;-92
2023/12/09 21:58:50;;;;;;;4.33;2.90;;;0.50;99.90;;;;;;1930503;72;25269;-92
2023/12/09 22:01:40;;;;;;;10.67;4.90;;;0.50;99.90;;;;;;1934945;72;25285;-91
2023/12/09 22:04:29;;;;;;;9.63;4.00;;;0.40;99.90;;;;;;1933481;72;25247;-91
2023/12/09 22:21:16;;;;;;;13.10;4.40;;;0.40;99.90;;;;;;1921744;73;26380;-91
2023/12/09 22:39:20;;;;;;;9.00;4.10;;;0.40;99.90;;;;;;1921041;74;27385;-92
2023/12/09 22:56:48;;;;;;;9.60;4.67;;;0.40;99.90;;;;;;1865270;75;27090;-92
2023/12/09 23:02:29;;;;;;;12.47;5.73;;;0.40;99.90;;;;;;1900897;74;27200;-91
2023/12/09 23:05:18;;;;;;;13.73;6.57;;;0.40;99.90;;;;;;1852282;75;25180;-91
2023/12/09 23:08:08;;;;;;;10.70;4.00;;;0.40;99.90;;;;;;1868382;76;25225;-92
2023/12/09 23:10:57;;;;;;;9.77;4.60;;;0.50;99.90;;;;;;1858935;75;25220;-92
2023/12/09 23:13:46;;;;;;;14.97;5.87;;;0.50;99.90;;;;;;1864386;76;25266;-91
2023/12/09 23:16:34;;;;;;;17.87;8.20;;;0.50;99.90;;;;;;1828286;76;25225;-92
2023/12/09 23:19:24;;;;;;;10.17;4.67;;;0.50;99.90;;;;;;1805191;76;25332;-91
2023/12/09 23:22:13;;;;;;;12.30;4.80;;;0.50;99.90;;;;;;1820360;78;25250;-91
2023/12/09 23:25:02;;;;;;;4.87;2.20;;;0.50;99.90;;;;;;1856850;76;25246;-92
2023/12/09 23:27:51;;;;;;;10.17;4.90;;;0.60;99.90;;;;;;1869951;76;25199;-92
2023/12/09 23:30:39;;;;;;;10.10;3.37;;;0.60;99.90;;;;;;1862554;75;25693;-90
2023/12/09 23:33:28;;;;;;;10.20;4.40;;;0.50;99.90;;;;;;1855225;75;25228;-90
2023/12/09 23:36:16;;;;;;;11.67;4.97;;;0.50;99.90;;;;;;1864487;76;25167;-90
2023/12/09 23:39:05;;;;;;;11.10;4.50;;;0.50;99.90;;;;;;1855903;76;25244;-91
2023/12/09 23:41:54;;;;;;;6.40;3.83;;;0.50;99.90;;;;;;1858756;76;25707;-91
2023/12/09 23:44:43;;;;;;;14.90;5.63;;;0.50;99.90;;;;;;1846621;76;25284;-91
2023/12/09 23:47:32;;;;;;;8.03;3.77;;;0.40;99.90;;;;;;1845276;76;25248;-90
2023/12/09 23:53:35;;;;;;;11.47;5.73;;;0.40;99.90;;;;;;1976411;71;26642;-92
2023/12/09 23:56:23;;;;;;;11.67;3.03;;;0.40;99.90;;;;;;2019224;70;25792;-93
2023/12/09 23:59:12;;;;;;;10.60;5.00;;;0.30;99.90;;;;;;1999195;69;25228;-92
